Time;durP1;ratioP1;P1;durP2;ratioP2;P2;SDS_P1;SDS_P2;PMS_P1;PMS_P2;Temp;Humidity;BMP_temperature;BMP_pressure;BME280_temperature;BME280_humidity;BME280_pressure;Samples;Min_cycle;Max_cycle;Signal;HPM_P1;HPM_P2
2023/06/07 00:00:27;;;;;;;13.75;5.88;;;;;;;22.20;54.32;98489.97;5112341;28;20027;-46
2023/06/07 00:02:56;;;;;;;8.35;5.43;;;;;;;22.23;55.41;98489.38;5113798;28;20019;-45
2023/06/07 00:05:22;;;;;;;13.90;6.07;;;;;;;22.16;55.60;98487.06;5113919;28;20031;-46
2023/06/07 00:07:48;;;;;;;10.18;5.60;;;;;;;22.23;55.87;98486.72;5113582;28;20036;-46
2023/06/07 00:10:14;;;;;;;14.80;7.05;;;;;;;22.30;56.64;98496.03;5113562;28;20069;-45
2023/06/07 00:12:41;;;;;;;10.15;6.07;;;;;;;22.39;56.17;98484.72;5112243;28;20035;-46
2023/06/07 00:15:07;;;;;;;15.27;8.18;;;;;;;22.48;56.32;98488.38;5113478;28;20018;-46
2023/06/07 00:17:33;;;;;;;8.48;6.10;;;;;;;22.52;55.63;98484.06;5113421;28;20035;-46
2023/06/07 00:20:00;;;;;;;9.02;5.50;;;;;;;22.53;55.71;98489.13;5095153;28;20016;-46
2023/06/07 00:22:26;;;;;;;7.28;5.50;;;;;;;22.49;55.96;98482.75;5112009;28;20405;-46
2023/06/07 00:24:52;;;;;;;11.20;5.70;;;;;;;22.41;56.45;98483.34;5113254;28;20050;-46
2023/06/07 00:27:18;;;;;;;7.60;6.03;;;;;;;22.31;56.20;98486.13;5113238;28;20497;-45
2023/06/07 00:29:44;;;;;;;13.77;8.82;;;;;;;22.12;57.06;98478.78;5113247;28;20042;-46
2023/06/07 00:32:11;;;;;;;10.93;6.90;;;;;;;22.10;57.23;98483.63;5095026;28;20497;-46
2023/06/07 00:34:37;;;;;;;12.10;7.40;;;;;;;22.11;57.32;98490.56;5113099;28;20020;-46
2023/06/07 00:37:03;;;;;;;10.48;6.20;;;;;;;22.03;56.83;98480.47;5101035;28;20396;-46
2023/06/07 00:39:28;;;;;;;9.70;6.38;;;;;;;21.93;57.46;98483.22;5092541;28;20490;-46
2023/06/07 00:41:54;;;;;;;7.97;6.80;;;;;;;21.88;57.97;98481.41;5074345;28;20027;-46
2023/06/07 00:44:20;;;;;;;13.50;6.60;;;;;;;21.84;58.36;98482.25;5074387;28;20028;-46
2023/06/07 00:46:46;;;;;;;13.07;6.63;;;;;;;21.97;58.01;98484.25;5092457;28;20064;-45
2023/06/07 00:49:16;;;;;;;13.02;6.55;;;;;;;21.99;58.19;98482.09;5074289;28;20028;-46
2023/06/07 00:51:44;;;;;;;8.65;5.57;;;;;;;21.94;58.88;98482.16;5092690;28;20016;-46
2023/06/07 00:54:09;;;;;;;20.98;7.13;;;;;;;21.90;58.95;98497.94;5074527;28;20498;-46
2023/06/07 00:56:35;;;;;;;13.88;10.77;;;;;;;21.88;58.92;98496.63;5092360;28;20103;-45
2023/06/07 00:59:02;;;;;;;24.40;21.92;;;;;;;21.81;58.70;98488.13;5074027;28;20126;-45
2023/06/07 01:01:29;;;;;;;11.25;9.50;;;;;;;21.70;59.19;98488.22;5092219;28;20437;-45
2023/06/07 01:03:55;;;;;;;16.52;7.65;;;;;;;21.68;59.18;98489.56;5092272;28;20027;-45
2023/06/07 01:06:24;;;;;;;14.98;8.30;;;;;;;21.60;59.66;98496.28;5092158;28;20057;-45
2023/06/07 01:08:53;;;;;;;17.15;13.27;;;;;;;21.57;59.63;98498.72;5092183;28;20107;-46
2023/06/07 01:11:22;;;;;;;7.85;7.00;;;;;;;21.55;59.16;98493.66;5092101;28;20042;-45
2023/06/07 01:13:49;;;;;;;11.90;7.57;;;;;;;21.31;59.00;98498.84;5092055;28;20031;-46
2023/06/07 01:16:15;;;;;;;12.00;7.40;;;;;;;21.14;59.70;98491.97;5073919;28;20505;-45
2023/06/07 01:18:42;;;;;;;14.85;7.25;;;;;;;21.00;59.86;98487.50;5092196;28;20024;-45
2023/06/07 01:21:13;;;;;;;14.18;7.82;;;;;;;20.91;60.57;98490.75;5074306;28;20024;-46
2023/06/07 01:23:40;;;;;;;12.25;7.70;;;;;;;20.91;60.81;98489.97;5092003;28;20028;-45
2023/06/07 01:26:06;;;;;;;8.35;6.05;;;;;;;20.93;62.80;98493.94;5091926;28;20095;-45
2023/06/07 01:28:37;;;;;;;9.20;7.35;;;;;;;20.94;62.35;98500.06;5091888;28;20017;-46
2023/06/07 01:31:04;;;;;;;13.13;7.85;;;;;;;20.79;61.59;98500.94;5091821;28;20036;-45
2023/06/07 01:33:32;;;;;;;12.77;7.63;;;;;;;20.65;61.72;98506.03;5091768;28;20481;-45
2023/06/07 01:35:59;;;;;;;14.13;7.95;;;;;;;20.58;61.97;98502.00;5091839;28;20020;-45
2023/06/07 01:38:27;;;;;;;11.70;8.07;;;;;;;20.57;61.95;98501.22;5081937;28;20417;-45
2023/06/07 01:40:54;;;;;;;9.52;8.50;;;;;;;20.53;61.92;98505.50;5107552;28;20024;-45
2023/06/07 01:43:21;;;;;;;11.55;7.65;;;;;;;20.49;62.33;98504.44;5110825;28;20027;-45
2023/06/07 01:45:48;;;;;;;15.68;9.43;;;;;;;20.49;62.93;98501.78;5112014;28;20486;-45
2023/06/07 01:48:15;;;;;;;9.73;8.70;;;;;;;20.46;62.61;98504.97;5114251;28;20409;-45
2023/06/07 01:50:41;;;;;;;12.82;8.63;;;;;;;20.35;63.07;98504.97;5116321;28;20036;-45
2023/06/07 01:53:06;;;;;;;11.15;8.95;;;;;;;20.35;63.53;98507.66;5116474;28;20065;-45
2023/06/07 01:55:32;;;;;;;12.43;7.90;;;;;;;20.40;63.26;98504.16;5116195;28;20055;-45
2023/06/07 01:58:30;;;;;;;10.57;7.82;;;;;;;20.33;63.13;98509.00;5116361;28;20023;-45
2023/06/07 02:01:21;;;;;;;10.38;8.02;;;;;;;20.25;63.60;98501.53;5116114;28;20027;-45
2023/06/07 02:03:52;;;;;;;9.20;7.45;;;;;;;20.24;63.62;98497.25;5116132;28;20051;-45
2023/06/07 02:06:26;;;;;;;12.60;8.45;;;;;;;20.25;63.64;98504.19;5114769;28;20132;-45
2023/06/07 02:08:54;;;;;;;12.82;8.02;;;;;;;20.28;63.20;98501.81;5097688;28;20037;-45
2023/06/07 02:11:22;;;;;;;9.07;7.70;;;;;;;20.25;62.77;98502.31;5114573;28;20540;-45
2023/06/07 02:13:52;;;;;;;13.38;8.13;;;;;;;20.15;62.75;98505.00;5115905;28;20020;-45
2023/06/07 02:16:32;;;;;;;17.65;8.27;;;;;;;20.12;63.21;98501.00;5115790;28;20024;-45
2023/06/07 02:18:59;;;;;;;11.93;8.38;;;;;;;20.15;62.77;98508.47;5115759;28;20481;-45
2023/06/07 02:21:24;;;;;;;14.13;8.43;;;;;;;20.06;62.63;98506.59;5115591;28;20024;-45
2023/06/07 02:23:51;;;;;;;9.23;8.30;;;;;;;19.85;62.75;98506.59;5115691;28;20085;-45
2023/06/07 02:26:16;;;;;;;10.40;8.35;;;;;;;19.75;63.92;98502.03;5115581;28;20027;-45
2023/06/07 02:28:42;;;;;;;10.77;8.35;;;;;;;19.74;63.93;98499.66;5114237;28;20016;-45
2023/06/07 02:31:07;;;;;;;15.25;8.15;;;;;;;19.73;64.20;98498.06;5115478;28;20107;-45
2023/06/07 02:33:33;;;;;;;9.10;7.70;;;;;;;19.73;64.28;98498.84;5114207;28;20096;-45
2023/06/07 02:35:59;;;;;;;15.20;7.88;;;;;;;19.69;64.20;98499.63;5115492;28;20072;-45
2023/06/07 02:38:25;;;;;;;12.75;7.90;;;;;;;19.57;64.28;98497.19;5113916;28;20043;-45
2023/06/07 02:40:50;;;;;;;12.02;8.55;;;;;;;19.47;64.53;98492.66;5115188;28;20028;-45
2023/06/07 02:43:16;;;;;;;14.60;8.07;;;;;;;19.42;65.17;98497.97;5114092;28;20039;-45
2023/06/07 02:45:42;;;;;;;11.75;8.98;;;;;;;19.45;65.24;98502.75;5115128;28;20503;-45
2023/06/07 02:48:07;;;;;;;9.43;8.48;;;;;;;19.36;65.06;98499.81;5113852;28;20076;-45
2023/06/07 02:50:33;;;;;;;11.80;8.43;;;;;;;19.37;65.56;98495.28;5115205;28;20028;-45
2023/06/07 02:52:59;;;;;;;15.80;8.70;;;;;;;19.45;65.50;98492.13;5113855;28;20023;-45
2023/06/07 02:55:25;;;;;;;10.38;7.60;;;;;;;19.54;65.19;98500.41;5115000;28;20027;-45
2023/06/07 02:57:51;;;;;;;9.75;7.57;;;;;;;19.50;65.19;98496.69;5113728;28;20024;-45
2023/06/07 03:00:17;;;;;;;11.07;8.13;;;;;;;19.44;65.68;98495.06;5114043;28;20031;-45
2023/06/07 03:02:42;;;;;;;13.35;8.32;;;;;;;19.34;66.17;98499.28;5114961;28;20024;-45
2023/06/07 03:05:09;;;;;;;10.02;8.05;;;;;;;19.33;66.70;98492.34;5114893;28;20020;-45
2023/06/07 03:07:35;;;;;;;12.70;8.55;;;;;;;19.41;66.80;98484.94;5114806;28;20438;-45
2023/06/07 03:10:04;;;;;;;22.70;9.50;;;;;;;19.44;66.56;98479.88;5114942;28;20111;-45
2023/06/07 03:12:30;;;;;;;15.38;8.48;;;;;;;19.47;66.60;98489.19;5114772;28;20489;-45
2023/06/07 03:14:56;;;;;;;15.32;8.95;;;;;;;19.46;66.72;98484.97;5114680;28;20038;-45
2023/06/07 03:17:22;;;;;;;15.43;8.65;;;;;;;19.40;67.71;98497.44;5114584;28;20028;-45
2023/06/07 03:19:47;;;;;;;14.25;8.10;;;;;;;19.40;67.78;98500.09;5113271;28;20027;-45
2023/06/07 03:22:13;;;;;;;12.02;7.97;;;;;;;19.38;68.61;98506.72;5114556;28;20023;-45
2023/06/07 03:24:39;;;;;;;17.27;8.75;;;;;;;19.41;68.34;98511.53;5096254;28;20546;-45
2023/06/07 03:27:08;;;;;;;10.80;8.38;;;;;;;19.42;68.61;98503.31;5114372;28;20034;-46
2023/06/07 03:29:34;;;;;;;14.15;8.27;;;;;;;19.50;68.36;98500.13;5114315;28;20593;-45
2023/06/07 03:32:00;;;;;;;12.23;8.73;;;;;;;19.48;68.21;98488.94;5114406;28;20489;-45
2023/06/07 03:34:29;;;;;;;17.10;8.45;;;;;;;19.50;69.17;98489.47;5114330;28;20047;-45
2023/06/07 03:36:56;;;;;;;11.18;7.60;;;;;;;19.60;69.11;98487.88;5114056;28;20092;-45
2023/06/07 03:39:21;;;;;;;13.40;9.93;;;;;;;19.64;69.17;98494.28;5095826;28;20563;-45
2023/06/07 03:41:47;;;;;;;13.07;7.75;;;;;;;19.67;69.14;98497.22;5114217;28;20024;-45
2023/06/07 03:44:13;;;;;;;13.38;9.05;;;;;;;19.58;68.96;98492.66;5095776;28;20076;-45
2023/06/07 03:46:40;;;;;;;17.95;8.65;;;;;;;19.44;70.07;98487.88;5078920;28;20027;-45
2023/06/07 03:49:06;;;;;;;15.30;8.68;;;;;;;19.44;70.47;98492.41;5113972;28;20023;-45
2023/06/07 03:51:32;;;;;;;15.63;9.77;;;;;;;19.52;70.49;98492.69;5112628;28;20026;-45
2023/06/07 03:53:59;;;;;;;15.88;9.90;;;;;;;19.60;70.39;98499.34;5113939;28;20019;-45
2023/06/07 03:56:28;;;;;;;17.05;9.45;;;;;;;19.71;70.16;98495.66;5113867;28;20023;-45
2023/06/07 03:58:54;;;;;;;13.02;9.05;;;;;;;19.74;69.80;98495.13;5113800;28;20089;-45
2023/06/07 04:01:21;;;;;;;13.63;9.00;;;;;;;19.85;69.94;98497.81;5113753;28;20015;-46
2023/06/07 04:03:47;;;;;;;11.23;8.82;;;;;;;20.03;69.74;98497.28;5113776;28;20020;-45
2023/06/07 04:06:14;;;;;;;11.90;8.98;;;;;;;20.19;68.73;98502.63;5113667;28;20115;-45
2023/06/07 04:08:39;;;;;;;14.13;8.63;;;;;;;20.20;68.29;98498.88;5113934;28;20032;-45
2023/06/07 04:11:06;;;;;;;14.82;10.52;;;;;;;20.20;69.44;98490.88;5112445;28;20505;-45
2023/06/07 04:13:31;;;;;;;14.73;9.32;;;;;;;20.27;69.12;98500.19;5113555;28;20019;-46
2023/06/07 04:15:57;;;;;;;18.17;8.85;;;;;;;20.20;69.26;98501.53;5113726;28;20020;-46
2023/06/07 04:18:23;;;;;;;21.83;11.35;;;;;;;20.40;69.88;98498.03;5113440;28;20020;-46
2023/06/07 04:20:48;;;;;;;17.98;10.45;;;;;;;20.42;69.35;98496.69;5095018;28;20477;-46
2023/06/07 04:23:14;;;;;;;15.18;10.70;;;;;;;20.59;70.03;98498.31;5113331;28;20024;-46
2023/06/07 04:25:41;;;;;;;16.45;11.02;;;;;;;20.97;69.20;98499.53;5113469;28;20031;-45
2023/06/07 04:28:08;;;;;;;12.85;10.40;;;;;;;21.42;67.53;98499.59;5113183;28;20073;-45
2023/06/07 04:30:36;;;;;;;15.18;10.60;;;;;;;21.73;65.63;98505.53;5095202;28;20031;-45
2023/06/07 04:33:09;;;;;;;18.88;10.90;;;;;;;21.98;64.14;98503.78;5113148;28;20028;-45
2023/06/07 04:35:41;;;;;;;19.58;11.80;;;;;;;22.31;63.59;98504.84;5113360;28;20015;-45
2023/06/07 04:38:11;;;;;;;18.50;10.65;;;;;;;22.66;62.31;98500.25;5112815;28;20547;-45
2023/06/07 04:40:41;;;;;;;24.25;10.48;;;;;;;22.78;61.26;98507.84;5095477;28;20028;-45
2023/06/07 04:43:08;;;;;;;15.30;11.15;;;;;;;22.79;61.19;98504.09;5112961;28;20490;-45
2023/06/07 04:45:36;;;;;;;16.08;10.52;;;;;;;22.79;61.47;98502.22;5112851;28;20023;-45
2023/06/07 04:48:04;;;;;;;17.25;11.85;;;;;;;23.07;60.62;98505.16;5112860;28;20107;-45
2023/06/07 04:50:30;;;;;;;14.77;10.45;;;;;;;23.46;59.42;98509.44;5094804;28;20501;-46
2023/06/07 04:53:03;;;;;;;12.38;10.77;;;;;;;23.69;58.30;98513.94;5112842;28;20051;-45
2023/06/07 04:55:34;;;;;;;16.40;11.68;;;;;;;23.69;57.84;98515.84;5094494;28;20126;-45
2023/06/07 04:58:04;;;;;;;25.95;11.70;;;;;;;23.95;57.47;98502.06;5094837;28;20047;-45
2023/06/07 05:00:33;;;;;;;23.90;12.30;;;;;;;24.14;57.14;98508.16;5094360;28;20060;-45
2023/06/07 05:03:09;;;;;;;18.20;11.82;;;;;;;24.29;56.04;98505.25;5112708;28;20581;-46
2023/06/07 05:05:36;;;;;;;16.02;11.10;;;;;;;24.69;55.86;98502.16;5095823;28;20031;-45
2023/06/07 05:08:03;;;;;;;24.48;12.07;;;;;;;25.15;54.09;98501.19;5112537;28;20019;-46
2023/06/07 05:10:29;;;;;;;16.23;11.30;;;;;;;25.34;53.34;98511.06;5094244;28;20027;-46
2023/06/07 05:12:55;;;;;;;19.35;11.05;;;;;;;25.77;52.33;98510.63;5094187;28;20106;-46
2023/06/07 05:15:24;;;;;;;16.00;11.02;;;;;;;25.95;51.29;98509.69;5094508;28;20461;-45
2023/06/07 05:17:51;;;;;;;17.42;11.50;;;;;;;26.13;51.23;98512.50;5094397;28;20027;-46
2023/06/07 05:20:17;;;;;;;16.10;10.15;;;;;;;26.85;49.39;98514.94;5112322;28;20020;-46
2023/06/07 05:22:43;;;;;;;14.07;10.30;;;;;;;27.40;47.30;98519.03;5112299;28;20027;-46
2023/06/07 05:25:11;;;;;;;16.95;10.18;;;;;;;27.68;46.84;98514.13;5077182;28;20084;-46
2023/06/07 05:27:41;;;;;;;14.70;10.23;;;;;;;28.22;45.00;98513.00;5077689;28;20485;-46
2023/06/07 05:30:07;;;;;;;14.82;10.13;;;;;;;28.92;43.78;98518.16;5093951;28;20032;-46
2023/06/07 05:32:34;;;;;;;12.50;10.23;;;;;;;29.62;42.11;98505.78;5112290;28;20373;-46
2023/06/07 05:35:01;;;;;;;11.32;9.43;;;;;;;30.05;41.18;98504.63;5093979;28;20031;-46
2023/06/07 05:37:29;;;;;;;11.20;9.95;;;;;;;30.49;39.86;98508.81;5111972;28;20409;-46
2023/06/07 05:39:54;;;;;;;22.35;9.73;;;;;;;30.68;39.98;98503.63;5112102;28;20019;-46
2023/06/07 05:42:20;;;;;;;21.52;9.95;;;;;;;31.31;38.88;98507.88;5077149;28;20042;-46
2023/06/07 05:44:48;;;;;;;11.63;9.35;;;;;;;31.60;37.87;98504.88;5093796;28;20501;-46
2023/06/07 05:47:15;;;;;;;20.10;9.85;;;;;;;31.97;37.76;98506.66;5112267;28;20481;-46
2023/06/07 05:49:43;;;;;;;22.08;9.32;;;;;;;32.27;36.08;98504.34;5110783;28;20423;-46
2023/06/07 05:52:08;;;;;;;15.82;9.30;;;;;;;32.25;35.72;98510.13;5112084;28;20080;-46
2023/06/07 05:54:34;;;;;;;15.40;9.27;;;;;;;32.25;35.85;98514.78;5112037;28;20020;-46
2023/06/07 05:57:01;;;;;;;18.83;9.65;;;;;;;32.31;36.24;98510.66;5111986;28;20032;-46
2023/06/07 05:59:26;;;;;;;18.38;9.65;;;;;;;32.70;35.85;98520.94;5111957;28;20437;-46
2023/06/07 06:01:52;;;;;;;14.98;9.48;;;;;;;33.16;34.83;98515.81;5110849;28;20036;-46
2023/06/07 06:04:18;;;;;;;20.50;9.98;;;;;;;33.60;33.67;98521.03;5112000;28;20066;-46
2023/06/07 06:06:43;;;;;;;16.35;8.55;;;;;;;34.03;33.65;98522.69;5093627;28;20374;-46
2023/06/07 06:09:09;;;;;;;13.88;8.48;;;;;;;34.48;32.74;98517.66;5093535;28;20059;-46
2023/06/07 06:11:35;;;;;;;12.07;8.00;;;;;;;34.64;32.12;98525.69;5110820;28;20489;-46
2023/06/07 06:14:01;;;;;;;19.63;8.40;;;;;;;34.98;32.13;98529.34;5110525;28;20023;-46
2023/06/07 06:16:27;;;;;;;12.35;8.10;;;;;;;35.52;30.89;98529.34;5111796;28;20027;-46
2023/06/07 06:18:52;;;;;;;10.02;7.93;;;;;;;35.68;30.29;98523.69;5111735;28;20082;-46
2023/06/07 06:21:18;;;;;;;11.20;8.90;;;;;;;35.27;30.61;98520.81;5110462;28;20027;-46
2023/06/07 06:23:44;;;;;;;13.60;8.43;;;;;;;35.01;30.94;98525.09;5110467;28;20031;-46
2023/06/07 06:26:10;;;;;;;16.13;8.77;;;;;;;34.73;31.61;98529.00;5112024;28;20466;-46
2023/06/07 06:28:35;;;;;;;10.00;7.88;;;;;;;34.79;31.41;98529.44;5110751;28;20069;-46
2023/06/07 06:31:03;;;;;;;11.43;8.27;;;;;;;35.22;31.18;98529.34;5110328;28;20396;-46
2023/06/07 06:33:29;;;;;;;11.20;8.57;;;;;;;35.56;30.42;98528.22;5111721;28;20018;-46
2023/06/07 06:35:55;;;;;;;10.75;8.18;;;;;;;35.68;29.72;98529.16;5114549;28;20028;-46
2023/06/07 06:38:22;;;;;;;8.38;7.55;;;;;;;35.61;30.05;98532.56;5097022;28;20130;-46
2023/06/07 06:40:48;;;;;;;8.60;7.70;;;;;;;35.69;30.26;98539.69;5115264;28;20115;-46
2023/06/07 06:43:14;;;;;;;11.02;8.00;;;;;;;35.87;29.95;98537.19;5115339;28;20043;-46
2023/06/07 06:45:39;;;;;;;13.55;8.52;;;;;;;36.25;29.28;98540.72;5115308;28;20051;-46
2023/06/07 06:48:05;;;;;;;10.93;7.65;;;;;;;36.27;29.59;98545.81;5115193;28;20032;-46
2023/06/07 06:50:31;;;;;;;11.73;8.30;;;;;;;36.13;29.41;98543.69;5115189;28;20036;-46
2023/06/07 06:52:57;;;;;;;15.23;7.43;;;;;;;36.45;29.32;98554.97;5097096;28;20034;-46
2023/06/07 06:55:23;;;;;;;13.25;7.55;;;;;;;36.55;29.10;98548.78;5115110;28;20022;-46
2023/06/07 06:57:49;;;;;;;11.90;7.60;;;;;;;37.23;27.96;98542.28;5115060;28;20024;-46
2023/06/07 07:00:15;;;;;;;12.18;7.32;;;;;;;37.90;27.63;98547.28;5113846;28;20023;-44
2023/06/07 07:02:41;;;;;;;10.98;6.57;;;;;;;38.76;26.62;98549.41;5113901;28;20032;-44
2023/06/07 07:05:07;;;;;;;10.10;8.02;;;;;;;39.25;25.89;98531.28;5114873;28;20031;-44
2023/06/07 07:07:33;;;;;;;14.00;9.25;;;;;;;39.69;25.58;98545.69;5096682;28;20039;-47
2023/06/07 07:09:59;;;;;;;9.43;7.93;;;;;;;40.02;24.49;98538.06;5114811;28;20028;-47
2023/06/07 07:12:25;;;;;;;21.25;9.93;;;;;;;40.21;24.59;98545.78;5114791;28;20020;-47
2023/06/07 07:14:51;;;;;;;10.45;7.72;;;;;;;40.18;24.52;98540.31;5096353;28;20020;-47
2023/06/07 07:17:17;;;;;;;14.77;8.10;;;;;;;40.40;24.56;98547.25;5114798;28;20156;-49
2023/06/07 07:19:43;;;;;;;23.27;10.00;;;;;;;40.93;23.79;98543.28;5114530;28;20015;-49
2023/06/07 07:22:09;;;;;;;9.38;6.95;;;;;;;41.69;22.73;98548.75;5114477;28;20027;-50
2023/06/07 07:24:35;;;;;;;34.30;7.50;;;;;;;42.14;22.39;98544.22;5114510;28;20556;-50
2023/06/07 07:27:01;;;;;;;8.73;5.82;;;;;;;42.24;21.69;98546.03;5114431;28;20030;-50
2023/06/07 07:29:27;;;;;;;7.38;5.78;;;;;;;41.83;22.11;98545.00;5114738;28;20107;-50
2023/06/07 07:31:53;;;;;;;21.27;10.93;;;;;;;40.83;23.05;98552.44;5114367;28;20098;-49
2023/06/07 07:34:18;;;;;;;15.30;7.22;;;;;;;40.35;23.89;98555.94;5079257;28;20051;-49
2023/06/07 07:36:44;;;;;;;15.82;7.78;;;;;;;40.75;23.72;98552.88;5109480;28;20525;-50
2023/06/07 07:39:17;;;;;;;20.92;6.20;;;;;;;41.29;23.30;98553.16;5093882;28;20024;-50
2023/06/07 07:41:42;;;;;;;14.30;5.47;;;;;;;41.82;22.65;98557.25;5086430;28;20028;-50
2023/06/07 07:44:08;;;;;;;7.13;5.57;;;;;;;41.96;21.62;98558.22;5109768;28;20123;-50
2023/06/07 07:46:35;;;;;;;7.63;5.20;;;;;;;41.95;21.90;98556.69;5085075;28;20081;-49
2023/06/07 07:49:01;;;;;;;9.73;6.00;;;;;;;41.88;21.71;98546.53;5075439;28;20039;-49
2023/06/07 07:51:27;;;;;;;9.13;5.25;;;;;;;40.73;22.73;98554.06;5093597;28;20024;-50
2023/06/07 07:53:53;;;;;;;10.73;5.70;;;;;;;39.94;23.17;98551.84;5087689;28;20027;-49
2023/06/07 07:56:21;;;;;;;13.98;6.65;;;;;;;38.63;24.77;98564.69;5092189;28;20035;-47
2023/06/07 07:58:48;;;;;;;6.50;5.82;;;;;;;37.29;26.29;98566.19;5093524;28;20028;-47
2023/06/07 08:01:20;;;;;;;11.52;6.40;;;;;;;35.56;28.54;98563.72;5093477;28;20026;-45
2023/06/07 08:03:47;;;;;;;11.48;6.80;;;;;;;34.03;30.63;98568.19;5086821;28;20028;-46
2023/06/07 08:06:13;;;;;;;10.95;7.50;;;;;;;32.86;32.60;98578.84;5093391;28;20422;-47
2023/06/07 08:08:39;;;;;;;9.55;6.97;;;;;;;32.62;33.25;98568.94;5093285;28;20016;-46
2023/06/07 08:11:05;;;;;;;7.80;6.55;;;;;;;32.48;33.36;98572.03;5093179;28;20104;-46
2023/06/07 08:13:31;;;;;;;14.75;7.43;;;;;;;32.14;34.07;98565.31;5084444;28;20032;-46
2023/06/07 08:15:56;;;;;;;14.32;6.90;;;;;;;32.07;34.47;98567.84;5092148;28;20024;-46
2023/06/07 08:18:22;;;;;;;12.63;6.20;;;;;;;33.53;33.13;98570.66;5093169;28;20382;-46
2023/06/07 08:20:48;;;;;;;7.22;6.38;;;;;;;35.32;30.55;98559.50;5086346;28;20107;-47
2023/06/07 08:23:14;;;;;;;7.47;6.53;;;;;;;35.30;30.00;98569.22;5108672;28;20055;-45
2023/06/07 08:25:40;;;;;;;10.68;7.13;;;;;;;35.56;29.47;98558.25;5092929;28;20543;-45
2023/06/07 08:28:06;;;;;;;18.45;6.97;;;;;;;36.23;28.79;98551.25;5092909;28;20024;-45
2023/06/07 08:30:32;;;;;;;14.82;6.88;;;;;;;37.96;27.10;98548.47;5092927;28;20035;-47
2023/06/07 08:32:58;;;;;;;9.55;5.60;;;;;;;39.15;24.94;98549.34;5092793;28;20032;-47
2023/06/07 08:35:24;;;;;;;18.63;6.50;;;;;;;39.94;24.64;98542.81;5091149;28;20028;-47
2023/06/07 08:37:49;;;;;;;11.63;7.25;;;;;;;39.66;24.16;98549.22;5086357;28;20118;-47
2023/06/07 08:40:19;;;;;;;11.52;5.78;;;;;;;37.50;26.60;98554.53;5092611;28;20097;-47
2023/06/07 08:42:45;;;;;;;12.77;6.18;;;;;;;37.64;26.49;98553.84;5093009;28;20031;-47
2023/06/07 08:45:11;;;;;;;7.68;5.38;;;;;;;38.63;25.56;98551.75;5092593;28;20023;-47
2023/06/07 08:47:37;;;;;;;23.50;7.53;;;;;;;39.87;24.48;98549.13;5092584;28;20028;-47
2023/06/07 08:50:04;;;;;;;8.88;6.30;;;;;;;41.03;22.82;98552.63;5071283;28;20501;-50
2023/06/07 08:52:39;;;;;;;11.57;5.93;;;;;;;41.75;21.15;98545.53;5092474;28;20069;-50
2023/06/07 08:55:07;;;;;;;7.90;5.53;;;;;;;41.28;21.11;98548.84;5092501;28;20020;-49
2023/06/07 08:57:33;;;;;;;12.02;5.40;;;;;;;40.71;22.04;98550.16;5070228;28;20089;-49
2023/06/07 09:00:00;;;;;;;7.30;5.28;;;;;;;40.30;22.40;98542.56;5088896;28;20107;-49
2023/06/07 09:02:26;;;;;;;6.80;5.50;;;;;;;39.73;22.48;98554.69;5092568;28;20028;-50
2023/06/07 09:04:51;;;;;;;9.35;5.78;;;;;;;38.22;24.17;98552.09;5070754;28;20086;-49
2023/06/07 09:07:17;;;;;;;13.80;6.45;;;;;;;37.62;25.72;98552.69;5073061;28;20115;-47
2023/06/07 09:09:43;;;;;;;11.55;5.93;;;;;;;38.20;25.48;98551.69;5070634;28;20028;-46
2023/06/07 09:12:10;;;;;;;15.65;6.30;;;;;;;39.18;24.96;98541.50;5089025;28;20103;-47
2023/06/07 09:14:36;;;;;;;7.65;4.70;;;;;;;39.81;23.95;98538.94;5070574;28;20028;-47
2023/06/07 09:17:02;;;;;;;12.90;10.00;;;;;;;39.99;23.26;98534.16;5087946;28;20048;-47
2023/06/07 09:19:41;;;;;;;8.80;5.70;;;;;;;40.08;22.81;98536.44;5070785;28;20112;-50
2023/06/07 09:22:13;;;;;;;10.93;5.70;;;;;;;40.64;22.20;98525.44;5089513;28;20059;-49
2023/06/07 09:24:40;;;;;;;7.32;4.72;;;;;;;40.45;22.20;98535.81;5091948;28;20031;-49
2023/06/07 09:27:08;;;;;;;7.50;5.00;;;;;;;40.52;21.80;98537.72;5091948;28;20048;-50
2023/06/07 09:29:42;;;;;;;6.15;4.70;;;;;;;40.44;22.39;98527.97;5070558;28;20486;-50
2023/06/07 09:32:26;;;;;;;4.43;4.03;;;;;;;40.46;22.25;98531.88;5089385;28;20111;-49
2023/06/07 09:34:54;;;;;;;6.85;5.10;;;;;;;41.13;21.54;98535.22;5091928;28;20060;-50
2023/06/07 09:37:21;;;;;;;5.10;4.70;;;;;;;41.23;21.03;98530.81;5094206;28;20513;-50
2023/06/07 09:39:52;;;;;;;8.75;5.15;;;;;;;41.09;21.13;98520.69;5112319;28;20019;-49
2023/06/07 09:42:18;;;;;;;9.00;4.68;;;;;;;40.71;21.43;98525.38;5112218;28;20493;-49
2023/06/07 09:44:44;;;;;;;10.50;4.45;;;;;;;40.37;21.57;98517.00;5111084;28;20080;-50
2023/06/07 09:47:23;;;;;;;10.93;5.00;;;;;;;40.43;22.08;98515.38;5112089;28;20016;-49
2023/06/07 09:49:54;;;;;;;14.70;6.05;;;;;;;40.66;22.00;98512.84;5112080;28;20085;-49
2023/06/07 09:52:20;;;;;;;6.25;4.10;;;;;;;40.72;21.74;98507.66;5112068;28;20020;-50
2023/06/07 09:54:46;;;;;;;6.43;4.57;;;;;;;40.39;21.60;98511.88;5112046;28;20400;-50
2023/06/07 09:57:28;;;;;;;9.93;5.20;;;;;;;39.87;22.34;98505.16;5111997;28;20024;-49
2023/06/07 10:00:00;;;;;;;7.20;4.38;;;;;;;39.89;22.49;98497.31;5112246;28;20460;-50
2023/06/07 10:02:29;;;;;;;7.82;4.75;;;;;;;40.50;21.92;98496.84;5111856;28;20016;-50
2023/06/07 10:04:56;;;;;;;10.20;4.80;;;;;;;39.91;22.44;98496.91;5093593;28;20512;-50
2023/06/07 10:07:27;;;;;;;7.82;4.50;;;;;;;39.56;22.87;98495.88;5111826;28;20039;-50
2023/06/07 10:09:56;;;;;;;9.38;5.00;;;;;;;39.63;23.05;98492.34;5080186;28;20119;-50
2023/06/07 10:12:26;;;;;;;14.15;5.10;;;;;;;39.67;22.57;98490.34;5098234;28;20024;-50
2023/06/07 10:14:54;;;;;;;10.70;5.07;;;;;;;39.68;22.17;98489.94;5116225;28;20028;-49
2023/06/07 10:17:25;;;;;;;8.05;4.75;;;;;;;39.69;22.21;98488.75;5097858;28;20429;-49
2023/06/07 10:19:57;;;;;;;7.15;4.70;;;;;;;39.77;22.13;98485.97;5097686;28;20031;-50
2023/06/07 10:22:32;;;;;;;10.35;4.70;;;;;;;40.24;21.89;98478.97;5115778;28;20031;-50
2023/06/07 10:25:05;;;;;;;6.15;4.50;;;;;;;40.81;20.45;98476.94;5097435;28;20494;-50
2023/06/07 10:27:54;;;;;;;4.35;3.95;;;;;;;40.47;20.45;98480.41;5114547;28;20038;-50
2023/06/07 10:30:25;;;;;;;13.13;5.07;;;;;;;39.43;21.99;98475.56;5097580;28;20039;-50
2023/06/07 10:32:52;;;;;;;13.38;5.05;;;;;;;39.30;22.14;98484.22;5115497;28;20377;-50
2023/06/07 10:35:20;;;;;;;6.90;4.90;;;;;;;39.20;22.42;98476.00;5114175;28;20015;-50
2023/06/07 10:37:50;;;;;;;6.47;4.60;;;;;;;39.15;22.49;98477.97;5101654;28;20431;-50
2023/06/07 10:40:16;;;;;;;13.18;6.00;;;;;;;38.83;22.53;98482.75;5094897;28;20028;-49
2023/06/07 10:42:46;;;;;;;8.85;4.80;;;;;;;38.20;23.75;98474.16;5094970;28;20056;-50
2023/06/07 10:45:15;;;;;;;12.13;5.20;;;;;;;38.74;22.97;98475.72;5094897;28;20576;-50
2023/06/07 10:47:45;;;;;;;6.55;4.13;;;;;;;39.98;21.92;98471.34;5076682;28;20100;-50
2023/06/07 10:50:26;;;;;;;5.88;4.40;;;;;;;40.41;21.54;98477.31;5095049;28;20465;-49
2023/06/07 10:53:01;;;;;;;6.18;4.38;;;;;;;40.70;21.45;98469.56;5076517;28;20035;-50
2023/06/07 10:55:31;;;;;;;10.02;5.38;;;;;;;41.13;21.33;98469.13;5076558;28;20557;-50
2023/06/07 10:57:58;;;;;;;15.15;4.75;;;;;;;41.20;20.26;98470.25;5076450;28;20182;-50
2023/06/07 15:00:37;;;;;;;5.35;4.13;;;;;;;32.01;29.53;98293.09;5033128;28;20148;-46
2023/06/07 15:03:03;;;;;;;7.30;4.85;;;;;;;32.15;29.73;98289.94;5034190;28;20048;-46
2023/06/07 15:05:29;;;;;;;9.80;4.78;;;;;;;32.25;29.04;98292.88;5034083;28;20026;-46
2023/06/07 15:07:55;;;;;;;31.20;7.07;;;;;;;32.29;29.88;98284.03;5034164;28;20033;-46
2023/06/07 15:10:21;;;;;;;9.02;5.10;;;;;;;32.48;29.72;98280.53;5034383;28;20025;-46
2023/06/07 15:12:46;;;;;;;10.98;5.20;;;;;;;32.69;28.69;98283.75;5034362;28;20411;-46
2023/06/07 15:15:15;;;;;;;16.40;6.82;;;;;;;32.77;28.74;98290.91;5034262;28;20033;-46
2023/06/07 15:17:42;;;;;;;5.82;4.05;;;;;;;32.78;28.33;98289.75;5034151;28;20057;-46
2023/06/07 15:20:10;;;;;;;8.18;4.65;;;;;;;32.59;28.14;98295.97;5016552;28;20509;-45
2023/06/07 15:22:37;;;;;;;12.73;5.40;;;;;;;32.33;27.95;98293.81;5034137;28;20040;-45
2023/06/07 15:25:05;;;;;;;7.47;4.40;;;;;;;32.29;28.01;98284.81;5016955;28;20017;-46
2023/06/07 15:27:31;;;;;;;11.80;5.32;;;;;;;32.60;28.01;98291.34;5016251;28;20486;-46